createdAt,value
2023-07-03T00:01:17.390Z,15.80
2023-07-03T00:03:43.829Z,14.88
2023-07-03T00:06:10.414Z,16.30
2023-07-03T00:08:37.039Z,16.27
2023-07-03T00:11:05.443Z,15.73
2023-07-03T00:13:32.101Z,18.30
2023-07-03T00:16:00.692Z,15.52
2023-07-03T00:18:27.902Z,15.88
2023-07-03T00:20:55.635Z,19.40
2023-07-03T00:23:23.176Z,13.23
2023-07-03T00:25:50.866Z,16.98
2023-07-03T00:28:17.895Z,16.42
2023-07-03T00:30:46.030Z,15.75
2023-07-03T00:33:13.119Z,21.10
2023-07-03T00:35:40.384Z,21.65
2023-07-03T00:38:06.887Z,18.38
2023-07-03T00:40:33.746Z,19.45
2023-07-03T00:43:00.459Z,20.25
2023-07-03T00:45:26.977Z,20.10
2023-07-03T00:47:54.509Z,22.58
2023-07-03T00:50:21.495Z,15.90
2023-07-03T00:52:53.963Z,18.73
2023-07-03T00:55:21.464Z,18.27
2023-07-03T00:57:47.852Z,23.17
2023-07-03T01:00:14.821Z,18.80
2023-07-03T01:02:59.941Z,14.77
2023-07-03T01:05:33.310Z,18.95
2023-07-03T01:08:01.872Z,16.25
2023-07-03T01:10:30.656Z,16.50
2023-07-03T01:13:01.894Z,16.55
2023-07-03T01:15:35.252Z,15.93
2023-07-03T01:18:04.798Z,17.75
2023-07-03T01:20:35.821Z,26.10
2023-07-03T01:23:20.067Z,16.45
2023-07-03T01:25:48.426Z,18.33
2023-07-03T01:28:18.231Z,16.95
2023-07-03T01:30:45.729Z,17.73
2023-07-03T01:33:18.924Z,20.08
2023-07-03T01:35:50.126Z,17.48
2023-07-03T01:38:18.933Z,17.98
2023-07-03T01:40:45.402Z,15.45
2023-07-03T01:43:13.270Z,18.27
2023-07-03T01:45:45.156Z,17.63
2023-07-03T01:48:11.736Z,17.30
2023-07-03T01:50:39.756Z,18.30
2023-07-03T01:53:14.071Z,16.60
2023-07-03T01:56:05.230Z,17.67
2023-07-03T01:58:49.532Z,16.98
2023-07-03T02:01:26.132Z,15.95
2023-07-03T02:04:05.605Z,18.45
2023-07-03T02:06:39.074Z,17.60
2023-07-03T02:09:06.357Z,16.05
2023-07-03T02:11:32.876Z,16.95
2023-07-03T02:13:59.741Z,17.08
2023-07-03T02:16:26.279Z,14.63
2023-07-03T02:18:52.738Z,19.20
2023-07-03T02:21:19.273Z,17.45
2023-07-03T02:23:46.056Z,16.20
2023-07-03T02:26:12.984Z,17.80
2023-07-03T02:28:39.681Z,15.15
2023-07-03T02:31:06.333Z,20.13
2023-07-03T02:33:33.219Z,16.83
2023-07-03T02:36:03.409Z,17.40
2023-07-03T02:38:29.846Z,17.08
2023-07-03T02:40:56.485Z,15.43
2023-07-03T02:43:22.921Z,17.48
2023-07-03T02:45:50.140Z,18.33
2023-07-03T02:48:16.883Z,17.17
2023-07-03T02:50:43.466Z,18.73
2023-07-03T02:53:10.102Z,16.40
2023-07-03T02:55:36.490Z,17.05
2023-07-03T02:58:02.879Z,15.52
2023-07-03T03:00:29.436Z,18.02
2023-07-03T03:02:56.009Z,18.90
2023-07-03T03:05:22.656Z,19.10
2023-07-03T03:07:49.190Z,15.73
2023-07-03T03:10:15.778Z,16.40
2023-07-03T03:12:42.289Z,17.23
2023-07-03T03:15:09.006Z,19.70
2023-07-03T03:17:35.428Z,17.77
2023-07-03T03:20:01.872Z,15.38
2023-07-03T03:22:28.429Z,17.10
2023-07-03T03:24:54.968Z,17.55
2023-07-03T03:27:21.373Z,17.55
2023-07-03T03:29:49.259Z,17.10
2023-07-03T03:32:15.688Z,16.55
2023-07-03T03:34:42.120Z,16.25
2023-07-03T03:37:08.532Z,15.95
2023-07-03T03:39:35.154Z,17.75
2023-07-03T03:42:01.936Z,15.77
2023-07-03T03:44:28.344Z,15.85
2023-07-03T03:46:54.757Z,14.57
2023-07-03T03:49:21.307Z,15.20
2023-07-03T03:51:47.805Z,17.70
2023-07-03T03:54:14.204Z,15.65
2023-07-03T03:56:40.626Z,15.82
2023-07-03T03:59:07.610Z,14.00
2023-07-03T04:01:35.527Z,15.88
2023-07-03T04:04:02.506Z,16.23
2023-07-03T04:06:29.227Z,17.17
2023-07-03T04:08:59.748Z,16.63
2023-07-03T04:11:27.374Z,16.15
2023-07-03T04:13:53.844Z,16.17
2023-07-03T04:16:21.032Z,18.30
2023-07-03T04:18:47.538Z,18.33
2023-07-03T04:21:14.436Z,17.65
2023-07-03T04:23:42.030Z,15.05
2023-07-03T04:26:08.575Z,21.38
2023-07-03T04:28:35.283Z,16.75
2023-07-03T04:31:03.533Z,15.30
2023-07-03T04:33:30.098Z,20.88
2023-07-03T04:35:56.740Z,16.80
2023-07-03T04:38:25.181Z,16.88
2023-07-03T04:40:53.270Z,18.10
2023-07-03T04:43:20.086Z,18.42
2023-07-03T04:45:48.443Z,17.48
2023-07-03T04:48:17.546Z,19.35
2023-07-03T04:50:47.325Z,16.10
2023-07-03T04:53:13.768Z,20.00
2023-07-03T04:55:40.254Z,18.20
2023-07-03T04:58:06.788Z,16.77
2023-07-03T05:00:33.237Z,18.80
2023-07-03T05:03:01.354Z,19.88
2023-07-03T05:05:28.004Z,18.42
2023-07-03T05:07:56.460Z,17.75
2023-07-03T05:10:25.544Z,17.58
2023-07-03T05:12:52.259Z,16.52
2023-07-03T05:15:20.412Z,18.42
2023-07-03T05:17:56.063Z,17.95
2023-07-03T05:20:23.539Z,20.15
2023-07-03T05:22:50.430Z,18.27
2023-07-03T05:25:17.698Z,17.55
2023-07-03T05:27:44.368Z,16.75
2023-07-03T05:30:11.602Z,17.55
2023-07-03T05:32:38.775Z,18.20
2023-07-03T05:35:06.442Z,19.00
2023-07-03T05:37:33.800Z,21.17
2023-07-03T05:40:00.347Z,19.38
2023-07-03T05:42:26.830Z,19.95
2023-07-03T05:44:53.232Z,18.00
2023-07-03T05:47:19.722Z,18.80
2023-07-03T05:49:46.263Z,21.17
2023-07-03T05:52:12.796Z,19.05
2023-07-03T05:54:39.508Z,20.35
2023-07-03T05:57:08.197Z,16.75
2023-07-03T05:59:36.814Z,22.02
2023-07-03T06:02:05.657Z,19.80
2023-07-03T06:04:34.287Z,21.33
2023-07-03T06:07:01.949Z,19.70
2023-07-03T06:09:29.153Z,17.30
2023-07-03T06:11:57.020Z,16.77
2023-07-03T06:14:24.369Z,19.40
2023-07-03T06:16:51.903Z,17.58
2023-07-03T06:19:19.835Z,20.33
2023-07-03T06:21:46.337Z,20.00
2023-07-03T06:24:15.028Z,18.30
2023-07-03T06:26:44.130Z,20.70
2023-07-03T06:31:41.394Z,17.65
2023-07-03T06:34:08.240Z,21.73
2023-07-03T06:36:36.026Z,16.92
2023-07-03T06:39:05.917Z,16.42
2023-07-03T06:41:35.667Z,16.95
2023-07-03T06:44:05.137Z,19.65
2023-07-03T06:46:32.049Z,18.65
2023-07-03T06:48:58.747Z,16.10
2023-07-03T06:51:26.293Z,16.02
2023-07-03T06:53:53.200Z,14.60
2023-07-03T06:56:20.809Z,15.00
2023-07-03T06:58:50.685Z,16.58
2023-07-03T07:01:19.990Z,15.77
2023-07-03T07:03:46.682Z,15.32
2023-07-03T07:06:15.181Z,15.20
2023-07-03T07:08:42.007Z,13.57
2023-07-03T07:11:10.925Z,19.40
2023-07-03T07:13:50.163Z,14.25
2023-07-03T07:16:29.201Z,17.40
2023-07-03T07:18:57.849Z,14.27
2023-07-03T07:21:24.960Z,13.90
2023-07-03T07:23:53.674Z,14.90
2023-07-03T07:26:21.058Z,13.77
2023-07-03T07:28:47.560Z,18.10
2023-07-03T07:31:26.143Z,14.35
2023-07-03T07:33:53.200Z,18.75
2023-07-03T07:36:22.071Z,15.02
2023-07-03T07:38:55.210Z,14.15
2023-07-03T07:41:22.978Z,14.88
2023-07-03T07:43:50.420Z,13.85
2023-07-03T07:46:17.262Z,13.60
2023-07-03T07:48:43.879Z,13.40
2023-07-03T07:51:11.877Z,15.60
2023-07-03T07:53:38.457Z,13.40
2023-07-03T07:56:08.105Z,17.63
2023-07-03T07:58:35.734Z,13.93
2023-07-03T08:01:02.993Z,11.13
2023-07-03T08:03:29.675Z,14.70
2023-07-03T08:05:58.376Z,12.85
2023-07-03T08:08:27.126Z,13.63
2023-07-03T08:10:55.043Z,16.05
2023-07-03T08:13:22.256Z,13.32
2023-07-03T08:15:49.309Z,13.23
2023-07-03T08:18:16.966Z,15.38
2023-07-03T08:20:44.515Z,14.32
2023-07-03T08:23:11.388Z,15.85
2023-07-03T08:25:38.326Z,12.98
2023-07-03T08:28:05.553Z,11.27
2023-07-03T08:30:32.359Z,13.27
2023-07-03T08:32:58.819Z,15.52
2023-07-03T08:37:55.274Z,11.95
2023-07-03T08:40:23.575Z,15.07
2023-07-03T08:42:54.446Z,11.93
2023-07-03T08:45:24.353Z,16.23
2023-07-03T08:47:55.015Z,12.07
2023-07-03T08:50:35.800Z,10.85
2023-07-03T08:53:05.543Z,13.88
2023-07-03T08:55:42.022Z,12.57
2023-07-03T08:58:09.548Z,12.57
2023-07-03T09:00:46.039Z,11.95
2023-07-03T09:03:23.489Z,12.93
2023-07-03T09:06:03.220Z,16.95
2023-07-03T09:08:52.466Z,14.38
2023-07-03T09:11:22.182Z,10.68
2023-07-03T09:13:53.550Z,12.48
2023-07-03T09:16:23.539Z,12.77
2023-07-03T09:18:58.979Z,12.85
2023-07-03T09:21:28.306Z,12.20
2023-07-03T09:24:23.225Z,14.00
2023-07-03T09:27:01.004Z,15.98
2023-07-03T09:29:28.525Z,13.10
2023-07-03T09:31:56.435Z,13.23
2023-07-03T09:34:23.036Z,12.75
2023-07-03T09:37:00.456Z,9.82
2023-07-03T09:39:27.070Z,13.90
2023-07-03T09:41:58.047Z,14.18
2023-07-03T09:44:25.299Z,11.00
2023-07-03T09:46:56.858Z,15.75
2023-07-03T09:49:29.400Z,10.38
2023-07-03T09:51:58.875Z,11.93
2023-07-03T09:54:31.058Z,11.20
2023-07-03T09:56:57.792Z,8.80
2023-07-03T09:59:25.424Z,14.27
2023-07-03T10:07:06.391Z,13.68
2023-07-03T10:12:21.731Z,19.10
2023-07-03T10:14:55.313Z,11.60
2023-07-03T10:17:45.051Z,13.27
2023-07-03T10:20:17.849Z,11.40
2023-07-03T10:22:45.370Z,10.13
2023-07-03T10:25:19.340Z,10.43
2023-07-03T10:27:48.834Z,11.45
2023-07-03T10:30:19.427Z,13.70
2023-07-03T10:32:51.244Z,12.65
2023-07-03T10:35:25.420Z,15.20
2023-07-03T10:38:26.296Z,13.20
2023-07-03T10:41:18.680Z,11.73
2023-07-03T10:43:51.099Z,13.40
2023-07-03T10:46:27.988Z,11.20
2023-07-03T10:48:56.332Z,11.80
2023-07-03T10:51:26.307Z,11.77
2023-07-03T10:53:57.180Z,11.00
2023-07-03T10:56:43.108Z,13.57
2023-07-03T10:59:29.729Z,9.13
2023-07-03T11:02:07.109Z,13.68
2023-07-03T11:04:52.487Z,13.95
2023-07-03T11:07:39.434Z,10.68
2023-07-03T11:10:18.889Z,12.02
2023-07-03T11:13:02.523Z,13.43
2023-07-03T11:15:53.479Z,14.43
2023-07-03T11:24:53.134Z,11.95
2023-07-03T11:27:56.872Z,14.90
2023-07-03T11:30:27.017Z,10.15
2023-07-03T11:32:55.950Z,13.63
2023-07-03T11:41:00.818Z,9.55
2023-07-03T11:43:30.114Z,10.95
2023-07-03T11:45:59.299Z,12.00
2023-07-03T11:48:44.522Z,9.70
2023-07-03T11:51:14.414Z,10.95
2023-07-03T11:53:45.737Z,10.63
2023-07-03T11:56:34.548Z,9.98
2023-07-03T11:59:07.084Z,13.05
2023-07-03T12:01:33.846Z,10.73
2023-07-03T12:04:03.573Z,12.60
2023-07-03T12:06:39.418Z,10.02
2023-07-03T12:09:27.597Z,10.65
2023-07-03T12:12:08.174Z,11.27
2023-07-03T12:14:40.639Z,11.43
2023-07-03T12:17:32.799Z,11.65
2023-07-03T12:20:13.239Z,12.10
2023-07-03T12:22:46.287Z,11.32
2023-07-03T12:25:25.007Z,14.80
2023-07-03T12:27:52.153Z,10.90
2023-07-03T12:30:28.524Z,12.75
2023-07-03T12:32:56.920Z,11.23
2023-07-03T12:35:28.511Z,12.10
2023-07-03T12:38:06.081Z,11.48
2023-07-03T12:40:33.266Z,13.57
2023-07-03T12:42:59.689Z,14.20
2023-07-03T12:45:28.411Z,15.00
2023-07-03T12:48:01.893Z,10.90
2023-07-03T12:50:28.375Z,10.27
2023-07-03T12:53:03.842Z,11.50
2023-07-03T12:55:37.327Z,13.63
2023-07-03T12:58:06.719Z,9.63
2023-07-03T13:00:35.652Z,12.23
2023-07-03T13:05:35.921Z,11.88
2023-07-03T13:08:07.201Z,12.27
2023-07-03T13:10:33.612Z,11.65
2023-07-03T13:13:11.931Z,11.32
2023-07-03T13:15:41.163Z,13.25
2023-07-03T13:18:16.592Z,11.38
2023-07-03T13:21:00.247Z,11.13
2023-07-03T13:23:34.453Z,12.23
2023-07-03T13:26:02.198Z,12.52
2023-07-03T13:28:33.940Z,13.00
2023-07-03T13:31:07.661Z,11.85
2023-07-03T13:33:37.243Z,10.85
2023-07-03T13:36:26.255Z,10.13
2023-07-03T13:39:16.818Z,13.85
2023-07-03T13:41:44.118Z,12.75
2023-07-03T13:44:12.743Z,10.15
2023-07-03T13:46:40.661Z,11.60
2023-07-03T13:49:07.576Z,10.18
2023-07-03T13:51:36.266Z,12.07
2023-07-03T13:54:11.954Z,12.25
2023-07-03T13:56:43.265Z,12.18
2023-07-03T13:59:10.789Z,10.75
2023-07-03T14:01:38.812Z,11.43
2023-07-03T14:04:06.395Z,9.43
2023-07-03T14:06:33.341Z,13.30
2023-07-03T14:08:59.896Z,12.60
2023-07-03T14:11:26.288Z,11.02
2023-07-03T14:13:54.038Z,9.75
2023-07-03T14:16:20.652Z,10.73
2023-07-03T14:18:47.150Z,9.50
2023-07-03T14:21:14.890Z,11.68
2023-07-03T14:23:45.494Z,8.43
2023-07-03T14:26:13.450Z,10.95
2023-07-03T14:28:40.575Z,9.85
2023-07-03T14:31:08.722Z,10.55
2023-07-03T14:33:35.274Z,10.38
2023-07-03T14:36:01.778Z,10.60
2023-07-03T14:38:28.232Z,13.15
2023-07-03T14:40:54.651Z,9.90
2023-07-03T14:43:21.077Z,8.70
2023-07-03T14:45:47.624Z,10.85
2023-07-03T14:48:14.197Z,10.48
2023-07-03T14:50:40.630Z,9.63
2023-07-03T14:53:07.184Z,8.73
2023-07-03T14:55:33.653Z,8.48
2023-07-03T14:58:00.169Z,11.32
2023-07-03T15:00:26.569Z,8.10
2023-07-03T15:02:53.200Z,6.82
2023-07-03T15:05:23.535Z,8.85
2023-07-03T15:07:52.158Z,10.68
2023-07-03T15:10:20.030Z,11.13
2023-07-03T15:12:47.731Z,10.50
2023-07-03T15:15:14.336Z,7.65
2023-07-03T15:17:40.985Z,6.55
2023-07-03T15:20:08.571Z,12.38
2023-07-03T15:22:35.668Z,10.43
2023-07-03T15:25:02.335Z,7.50
2023-07-03T15:27:28.845Z,7.45
2023-07-03T15:29:55.276Z,11.13
2023-07-03T15:32:21.686Z,7.00
2023-07-03T15:34:52.463Z,8.35
2023-07-03T15:37:19.002Z,8.98
2023-07-03T15:39:45.478Z,10.13
2023-07-03T15:42:11.963Z,7.95
2023-07-03T15:44:38.359Z,8.80
2023-07-03T15:47:08.846Z,6.93
2023-07-03T15:49:38.945Z,6.82
2023-07-03T15:52:06.117Z,9.35
2023-07-03T15:54:35.890Z,9.73
2023-07-03T15:57:04.181Z,6.50
2023-07-03T15:59:31.035Z,9.02
2023-07-03T16:01:58.156Z,9.35
2023-07-03T16:04:24.616Z,7.72
2023-07-03T16:06:51.041Z,9.93
2023-07-03T16:09:17.746Z,6.40
2023-07-03T16:11:44.213Z,6.55
2023-07-03T16:14:10.644Z,7.47
2023-07-03T16:16:37.428Z,8.13
2023-07-03T16:19:04.451Z,8.65
2023-07-03T16:21:32.388Z,8.25
2023-07-03T16:23:59.052Z,6.18
2023-07-03T16:26:27.253Z,8.82
2023-07-03T16:28:54.679Z,8.32
2023-07-03T16:31:24.005Z,8.27
2023-07-03T16:33:52.465Z,7.72
2023-07-03T16:36:21.384Z,6.75
2023-07-03T16:41:16.188Z,9.80
2023-07-03T16:43:45.056Z,6.57
2023-07-03T16:48:40.079Z,9.77
2023-07-03T16:51:08.646Z,7.10
2023-07-03T16:53:38.696Z,7.70
2023-07-03T16:56:13.645Z,6.90
2023-07-03T16:58:42.225Z,8.65
2023-07-03T17:01:15.899Z,7.90
2023-07-03T17:03:42.824Z,10.98
2023-07-03T17:06:16.827Z,8.52
2023-07-03T17:08:43.247Z,6.28
2023-07-03T17:11:12.274Z,7.70
2023-07-03T17:13:39.095Z,6.72
2023-07-03T17:16:05.695Z,7.60
2023-07-03T17:18:32.504Z,9.45
2023-07-03T17:20:59.094Z,10.10
2023-07-03T17:23:25.757Z,10.02
2023-07-03T17:25:54.188Z,7.78
2023-07-03T17:28:20.868Z,7.80
2023-07-03T17:30:47.268Z,7.00
2023-07-03T17:33:13.808Z,7.60
2023-07-03T17:35:40.627Z,8.90
2023-07-03T17:38:09.458Z,6.05
2023-07-03T17:43:04.726Z,8.60
2023-07-03T17:45:31.124Z,7.88
2023-07-03T17:47:57.516Z,4.68
2023-07-03T17:50:23.977Z,7.40
2023-07-03T17:52:50.708Z,7.57
2023-07-03T17:55:17.368Z,10.63
2023-07-03T17:57:43.805Z,11.23
2023-07-03T18:00:10.820Z,6.63
2023-07-03T18:02:37.346Z,7.32
2023-07-03T18:05:04.026Z,6.80
2023-07-03T18:07:30.483Z,8.00
2023-07-03T18:09:56.902Z,8.35
2023-07-03T18:12:23.320Z,8.35
2023-07-03T18:14:49.738Z,8.40
2023-07-03T18:17:16.139Z,7.57
2023-07-03T18:19:42.575Z,6.93
2023-07-03T18:22:08.963Z,8.15
2023-07-03T18:24:35.402Z,10.15
2023-07-03T18:27:02.445Z,7.05
2023-07-03T18:29:28.835Z,7.20
2023-07-03T18:31:55.285Z,8.60
2023-07-03T18:34:21.742Z,6.25
2023-07-03T18:36:48.267Z,6.97
2023-07-03T18:39:14.817Z,8.40
2023-07-03T18:41:43.405Z,7.72
2023-07-03T18:44:10.387Z,7.45
2023-07-03T18:46:36.871Z,7.25
2023-07-03T18:49:03.363Z,7.50
2023-07-03T18:51:29.857Z,6.80
2023-07-03T18:53:56.328Z,7.13
2023-07-03T18:56:22.808Z,7.72
2023-07-03T18:58:52.842Z,7.30
2023-07-03T19:01:19.290Z,8.48
2023-07-03T19:03:45.802Z,6.88
2023-07-03T19:06:14.982Z,8.27
2023-07-03T19:08:41.748Z,10.07
2023-07-03T19:11:08.674Z,7.53
2023-07-03T19:13:35.314Z,8.15
2023-07-03T19:16:01.989Z,7.97
2023-07-03T19:18:31.028Z,10.73
2023-07-03T19:20:57.462Z,12.23
2023-07-03T19:23:23.959Z,10.98
2023-07-03T19:25:55.180Z,10.93
2023-07-03T19:28:22.987Z,11.77
2023-07-03T19:30:57.092Z,14.52
2023-07-03T19:33:24.117Z,11.93
2023-07-03T19:35:51.247Z,13.20
2023-07-03T19:38:18.257Z,22.33
2023-07-03T19:40:44.858Z,11.48
2023-07-03T19:43:11.845Z,10.55
2023-07-03T19:45:39.401Z,9.43
2023-07-03T19:48:07.318Z,9.05
2023-07-03T19:50:36.275Z,9.57
2023-07-03T19:53:02.722Z,9.82
2023-07-03T19:55:29.456Z,11.55
2023-07-03T19:57:56.018Z,11.85
2023-07-03T20:00:22.598Z,8.82
2023-07-03T20:02:49.159Z,9.52
2023-07-03T20:05:16.413Z,8.27
2023-07-03T20:07:42.840Z,8.88
2023-07-03T20:10:09.835Z,11.23
2023-07-03T20:12:36.622Z,11.40
2023-07-03T20:15:03.715Z,14.10
2023-07-03T20:17:31.836Z,12.05
2023-07-03T20:19:58.809Z,9.82
2023-07-03T20:22:25.398Z,12.50
2023-07-03T20:24:51.825Z,10.25
2023-07-03T20:27:18.591Z,9.20
2023-07-03T20:29:50.377Z,11.10
2023-07-03T20:32:17.694Z,10.27
2023-07-03T20:34:45.895Z,10.75
2023-07-03T20:37:12.283Z,8.88
2023-07-03T20:39:38.693Z,12.13
2023-07-03T20:42:06.636Z,10.82
2023-07-03T20:44:34.750Z,14.05
2023-07-03T20:47:04.046Z,14.77
2023-07-03T20:49:31.305Z,9.57
2023-07-03T20:51:59.901Z,12.77
2023-07-03T20:54:34.580Z,13.80
2023-07-03T20:57:05.444Z,12.55
2023-07-03T20:59:34.652Z,8.35
2023-07-03T21:02:01.804Z,9.88
2023-07-03T21:04:28.856Z,9.85
2023-07-03T21:06:56.274Z,19.08
2023-07-03T21:09:22.718Z,12.55
2023-07-03T21:11:50.487Z,18.92
2023-07-03T21:14:18.226Z,13.63
2023-07-03T21:16:44.943Z,11.02
2023-07-03T21:19:13.222Z,10.73
2023-07-03T21:21:40.008Z,10.68
2023-07-03T21:24:10.208Z,8.88
2023-07-03T21:26:37.193Z,11.82
2023-07-03T21:29:05.301Z,10.98
2023-07-03T21:31:36.675Z,10.60
2023-07-03T21:34:04.109Z,10.18
2023-07-03T21:36:33.250Z,10.48
2023-07-03T21:39:01.136Z,10.32
2023-07-03T21:41:31.973Z,10.23
2023-07-03T21:44:02.153Z,10.48
2023-07-03T21:46:30.810Z,8.52
2023-07-03T21:48:58.178Z,16.20
2023-07-03T21:51:29.554Z,31.20
2023-07-03T21:53:56.604Z,12.85
2023-07-03T21:56:28.550Z,11.45
2023-07-03T21:59:02.981Z,9.15
2023-07-03T22:01:35.062Z,11.80
2023-07-03T22:04:03.414Z,6.68
2023-07-03T22:06:29.864Z,10.63
2023-07-03T22:08:57.183Z,9.07
2023-07-03T22:11:24.503Z,10.23
2023-07-03T22:13:51.585Z,7.20
2023-07-03T22:16:18.738Z,7.88
2023-07-03T22:18:45.925Z,9.60
2023-07-03T22:21:13.161Z,7.25
2023-07-03T22:23:39.623Z,7.97
2023-07-03T22:26:06.037Z,7.25
2023-07-03T22:28:32.478Z,9.75
2023-07-03T22:30:59.716Z,13.35
2023-07-03T22:33:26.150Z,8.40
2023-07-03T22:35:54.211Z,8.43
2023-07-03T22:38:21.462Z,10.05
2023-07-03T22:40:51.879Z,9.35
2023-07-03T22:43:19.942Z,11.05
2023-07-03T22:45:46.450Z,8.00
2023-07-03T22:48:14.326Z,9.52
2023-07-03T22:50:41.248Z,9.40
2023-07-03T22:53:09.144Z,8.13
2023-07-03T22:55:40.851Z,6.72
2023-07-03T22:58:09.710Z,7.85
2023-07-03T23:00:39.470Z,6.15
2023-07-03T23:03:06.396Z,8.20
2023-07-03T23:05:32.977Z,8.32
2023-07-03T23:07:59.412Z,7.57
2023-07-03T23:10:25.817Z,6.57
2023-07-03T23:12:52.241Z,5.18
2023-07-03T23:15:18.677Z,9.18
2023-07-03T23:17:45.149Z,6.45
2023-07-03T23:20:15.714Z,9.40
2023-07-03T23:22:42.778Z,8.25
2023-07-03T23:25:09.944Z,6.55
2023-07-03T23:27:36.547Z,5.65
2023-07-03T23:30:05.429Z,8.18
2023-07-03T23:32:34.501Z,6.60
2023-07-03T23:37:27.867Z,6.57
2023-07-03T23:39:54.329Z,6.13
2023-07-03T23:42:20.790Z,7.07
2023-07-03T23:44:47.238Z,6.70
2023-07-03T23:47:14.121Z,7.00
2023-07-03T23:49:40.659Z,6.43
2023-07-03T23:52:07.585Z,6.50
2023-07-03T23:54:34.077Z,9.43
2023-07-03T23:57:00.597Z,7.07
2023-07-03T23:59:28.020Z,6.88
